createdAt,value
2022-09-28T00:00:47.634Z,68.71
2022-09-28T00:01:49.441Z,69.29
2022-09-28T00:02:51.417Z,69.85
2022-09-28T00:03:58.360Z,69.98
2022-09-28T00:05:00.054Z,70.00
2022-09-28T00:06:08.082Z,70.27
2022-09-28T00:07:09.812Z,71.36
2022-09-28T00:08:11.453Z,71.02
2022-09-28T00:09:14.375Z,71.73
2022-09-28T00:10:16.202Z,72.21
2022-09-28T00:11:19.349Z,72.60
2022-09-28T00:12:21.899Z,73.92
2022-09-28T00:13:24.728Z,74.23
2022-09-28T00:14:26.582Z,73.96
2022-09-28T00:15:28.254Z,74.10
2022-09-28T00:16:33.080Z,74.34
2022-09-28T00:17:36.513Z,74.68
2022-09-28T00:18:38.182Z,74.78
2022-09-28T00:19:44.104Z,74.76
2022-09-28T00:20:45.762Z,74.83
2022-09-28T00:21:48.105Z,74.47
2022-09-28T00:22:49.842Z,73.83
2022-09-28T00:24:12.009Z,73.68
2022-09-28T00:25:13.819Z,73.49
2022-09-28T00:26:15.502Z,73.20
2022-09-28T00:27:18.203Z,73.86
2022-09-28T00:28:19.825Z,73.61
2022-09-28T00:29:32.663Z,73.29
2022-09-28T00:30:34.350Z,73.59
2022-09-28T00:31:37.029Z,73.42
2022-09-28T00:32:38.755Z,73.39
2022-09-28T00:33:40.827Z,73.45
2022-09-28T00:34:46.093Z,73.30
2022-09-28T00:35:54.705Z,72.96
2022-09-28T00:36:56.363Z,72.85
2022-09-28T00:37:58.029Z,73.01
2022-09-28T00:39:03.218Z,72.70
2022-09-28T00:40:05.473Z,72.99
2022-09-28T00:41:08.288Z,73.20
2022-09-28T00:42:24.321Z,73.33
2022-09-28T00:43:28.199Z,73.65
2022-09-28T00:44:46.018Z,73.45
2022-09-28T00:45:59.197Z,73.24
2022-09-28T00:47:38.101Z,73.27
2022-09-28T00:48:47.415Z,73.04
2022-09-28T00:50:07.709Z,73.21
2022-09-28T00:51:12.787Z,73.56
2022-09-28T00:53:07.384Z,73.23
2022-09-28T00:54:09.806Z,72.84
2022-09-28T00:55:22.239Z,72.15
2022-09-28T00:56:27.159Z,71.73
2022-09-28T00:57:29.979Z,71.78
2022-09-28T00:58:36.547Z,71.86
2022-09-28T00:59:38.308Z,71.62
2022-09-28T01:00:43.341Z,71.18
2022-09-28T01:01:45.250Z,70.83
2022-09-28T01:02:47.916Z,70.49
2022-09-28T01:03:49.637Z,70.52
2022-09-28T01:04:52.339Z,70.85
2022-09-28T01:05:57.571Z,70.74
2022-09-28T01:06:59.345Z,70.39
2022-09-28T01:08:02.289Z,69.74
2022-09-28T01:09:07.747Z,69.04
2022-09-28T01:10:09.942Z,69.65
2022-09-28T01:11:11.643Z,69.81
2022-09-28T01:12:13.334Z,69.90
2022-09-28T01:13:16.675Z,69.54
2022-09-28T01:14:19.381Z,69.43
2022-09-28T01:15:22.246Z,69.43
2022-09-28T01:17:01.166Z,69.30
2022-09-28T01:18:27.196Z,69.06
2022-09-28T01:20:07.118Z,69.40
2022-09-28T01:21:23.892Z,69.23
2022-09-28T01:22:52.249Z,69.37
2022-09-28T01:24:31.152Z,69.63
2022-09-28T01:25:48.009Z,68.24
2022-09-28T01:26:52.448Z,69.17
2022-09-28T01:28:04.457Z,69.31
2022-09-28T01:29:21.788Z,69.77
2022-09-28T01:30:23.582Z,69.67
2022-09-28T01:31:28.468Z,69.80
2022-09-28T01:32:36.927Z,69.89
2022-09-28T01:33:55.624Z,69.82
2022-09-28T01:35:21.194Z,69.85
2022-09-28T01:36:30.324Z,69.85
2022-09-28T01:37:42.283Z,69.83
2022-09-28T01:38:49.438Z,69.80
2022-09-28T01:39:52.841Z,69.35
2022-09-28T01:40:56.699Z,69.45
2022-09-28T01:42:05.256Z,69.08
2022-09-28T01:43:26.026Z,69.08
2022-09-28T01:44:31.993Z,68.79
2022-09-28T01:45:40.630Z,69.41
2022-09-28T01:46:46.807Z,68.94
2022-09-28T01:47:50.008Z,69.17
2022-09-28T01:48:59.263Z,69.00
2022-09-28T01:50:07.417Z,69.35
2022-09-28T01:51:17.387Z,69.32
2022-09-28T01:52:31.810Z,69.13
2022-09-28T01:53:37.534Z,70.10
2022-09-28T01:54:46.371Z,70.57
2022-09-28T01:55:53.779Z,70.22
2022-09-28T01:57:12.189Z,70.47
2022-09-28T01:58:22.809Z,70.26
2022-09-28T01:59:28.666Z,69.83
2022-09-28T02:00:30.631Z,69.96
2022-09-28T02:01:41.532Z,70.46
2022-09-28T02:03:17.011Z,69.70
2022-09-28T02:04:24.248Z,69.84
2022-09-28T02:05:34.182Z,70.36
2022-09-28T02:06:47.821Z,69.73
2022-09-28T02:07:59.719Z,69.33
2022-09-28T02:09:11.679Z,68.90
2022-09-28T02:10:19.433Z,68.85
2022-09-28T02:11:22.628Z,68.90
2022-09-28T02:12:31.861Z,68.65
2022-09-28T02:13:37.668Z,68.87
2022-09-28T02:14:41.535Z,69.37
2022-09-28T02:15:49.950Z,69.32
2022-09-28T02:16:56.853Z,69.30
2022-09-28T02:17:58.578Z,69.39
2022-09-28T02:19:01.148Z,68.75
2022-09-28T02:20:03.469Z,68.65
2022-09-28T02:21:12.797Z,68.51
2022-09-28T02:22:28.690Z,68.93
2022-09-28T02:23:33.852Z,69.33
2022-09-28T02:24:50.856Z,69.35
2022-09-28T02:26:02.280Z,68.85
2022-09-28T02:27:13.094Z,69.56
2022-09-28T02:28:14.956Z,69.23
2022-09-28T02:29:17.043Z,70.14
2022-09-28T02:30:18.995Z,70.67
2022-09-28T02:31:20.785Z,70.59
2022-09-28T02:32:24.410Z,70.96
2022-09-28T02:33:38.353Z,70.59
2022-09-28T02:34:40.024Z,70.67
2022-09-28T02:35:42.869Z,71.29
2022-09-28T02:36:46.977Z,71.16
2022-09-28T02:37:49.989Z,70.47
2022-09-28T02:38:52.533Z,70.97
2022-09-28T02:39:54.250Z,70.93
2022-09-28T02:41:14.789Z,71.22
2022-09-28T02:42:46.485Z,70.57
2022-09-28T02:44:03.381Z,70.99
2022-09-28T02:45:35.380Z,70.81
2022-09-28T02:46:45.789Z,70.30
2022-09-28T02:48:06.553Z,70.26
2022-09-28T02:49:42.524Z,70.10
2022-09-28T02:50:52.704Z,70.68
2022-09-28T02:52:19.752Z,70.71
2022-09-28T02:53:45.714Z,70.81
2022-09-28T02:54:56.086Z,70.30
2022-09-28T02:56:11.698Z,70.77
2022-09-28T02:57:19.820Z,70.64
2022-09-28T02:58:39.775Z,70.39
2022-09-28T03:00:05.701Z,71.66
2022-09-28T03:01:25.401Z,72.06
2022-09-28T03:02:53.423Z,72.45
2022-09-28T03:04:05.813Z,72.32
2022-09-28T03:05:24.534Z,72.48
2022-09-28T03:06:37.641Z,72.34
2022-09-28T03:07:46.929Z,72.33
2022-09-28T03:08:59.953Z,72.00
2022-09-28T03:10:20.675Z,71.64
2022-09-28T03:11:43.850Z,71.60
2022-09-28T03:12:48.398Z,71.08
2022-09-28T03:13:51.931Z,71.33
2022-09-28T03:15:24.317Z,70.89
2022-09-28T03:16:27.687Z,71.05
2022-09-28T03:17:29.434Z,70.68
2022-09-28T03:18:32.405Z,71.11
2022-09-28T03:19:34.811Z,71.20
2022-09-28T03:20:37.408Z,71.09
2022-09-28T03:21:39.435Z,70.67
2022-09-28T03:22:41.094Z,70.45
2022-09-28T03:23:43.253Z,70.75
2022-09-28T03:24:44.916Z,70.38
2022-09-28T03:25:46.586Z,70.41
2022-09-28T03:26:48.231Z,70.15
2022-09-28T03:27:49.893Z,69.61
2022-09-28T03:28:51.641Z,70.17
2022-09-28T03:29:53.345Z,70.16
2022-09-28T03:30:55.282Z,70.79
2022-09-28T03:31:56.997Z,70.46
2022-09-28T03:32:59.680Z,70.23
2022-09-28T03:34:01.416Z,70.07
2022-09-28T03:35:03.498Z,70.31
2022-09-28T03:36:06.074Z,70.40
2022-09-28T03:37:07.752Z,70.25
2022-09-28T03:38:09.396Z,70.68
2022-09-28T03:39:11.184Z,70.45
2022-09-28T03:40:13.041Z,70.23
2022-09-28T03:41:14.713Z,69.92
2022-09-28T03:42:16.387Z,69.86
2022-09-28T03:43:18.030Z,70.22
2022-09-28T03:44:19.887Z,69.63
2022-09-28T03:45:21.605Z,70.46
2022-09-28T03:46:23.313Z,69.94
2022-09-28T03:47:25.004Z,70.29
2022-09-28T03:48:36.661Z,70.54
2022-09-28T03:49:38.305Z,71.08
2022-09-28T03:50:40.019Z,72.06
2022-09-28T03:51:41.666Z,72.02
2022-09-28T03:52:43.648Z,71.94
2022-09-28T03:53:45.333Z,71.48
2022-09-28T03:54:49.219Z,70.71
2022-09-28T03:55:53.379Z,70.54
2022-09-28T03:56:55.057Z,70.81
2022-09-28T03:57:56.783Z,70.47
2022-09-28T03:58:58.514Z,70.88
2022-09-28T04:00:00.305Z,70.75
2022-09-28T04:01:14.144Z,70.52
2022-09-28T04:02:18.369Z,70.46
2022-09-28T04:03:20.014Z,70.45
2022-09-28T04:04:21.650Z,70.09
2022-09-28T04:05:23.319Z,70.38
2022-09-28T04:06:25.609Z,70.33
2022-09-28T04:07:30.919Z,71.25
2022-09-28T04:08:33.085Z,71.24
2022-09-28T04:09:34.816Z,71.59
2022-09-28T04:10:36.476Z,71.37
2022-09-28T04:11:59.403Z,71.54
2022-09-28T04:12:59.960Z,71.59
2022-09-28T04:14:01.658Z,71.45
2022-09-28T04:15:03.428Z,71.33
2022-09-28T04:16:05.530Z,71.76
2022-09-28T04:17:07.326Z,71.75
2022-09-28T04:18:13.691Z,72.24
2022-09-28T04:19:15.808Z,72.49
2022-09-28T04:20:18.010Z,73.02
2022-09-28T04:21:20.777Z,73.04
2022-09-28T04:22:23.479Z,72.95
2022-09-28T04:23:25.252Z,72.61
2022-09-28T04:24:26.907Z,72.88
2022-09-28T04:25:28.615Z,73.00
2022-09-28T04:26:30.558Z,72.65
2022-09-28T04:27:50.944Z,72.42
2022-09-28T04:29:11.457Z,72.72
2022-09-28T04:30:13.457Z,72.11
2022-09-28T04:31:18.063Z,72.21
2022-09-28T04:32:19.753Z,72.02
2022-09-28T04:33:21.420Z,72.19
2022-09-28T04:34:23.667Z,72.36
2022-09-28T04:35:25.407Z,72.30
2022-09-28T04:36:27.053Z,72.40
2022-09-28T04:37:31.328Z,72.80
2022-09-28T04:38:51.930Z,73.60
2022-09-28T04:39:54.729Z,73.88
2022-09-28T04:40:56.415Z,73.51
2022-09-28T04:41:58.130Z,73.61
2022-09-28T04:42:59.789Z,72.86
2022-09-28T04:44:01.864Z,72.75
2022-09-28T04:45:04.980Z,72.48
2022-09-28T04:46:06.977Z,72.81
2022-09-28T04:47:08.705Z,72.35
2022-09-28T04:48:10.376Z,72.18
2022-09-28T04:49:12.166Z,71.52
2022-09-28T04:50:13.923Z,72.10
2022-09-28T04:51:15.673Z,72.71
2022-09-28T04:52:18.561Z,72.22
2022-09-28T04:53:20.995Z,72.53
2022-09-28T04:54:22.675Z,72.32
2022-09-28T04:55:24.465Z,72.25
2022-09-28T04:56:26.149Z,72.48
2022-09-28T04:57:27.868Z,72.35
2022-09-28T04:58:31.031Z,72.75
2022-09-28T04:59:32.700Z,72.26
2022-09-28T05:00:35.244Z,72.99
2022-09-28T05:01:37.148Z,74.06
2022-09-28T05:02:39.282Z,75.30
2022-09-28T05:03:41.996Z,76.67
2022-09-28T05:04:43.668Z,78.05
2022-09-28T05:05:45.925Z,77.31
2022-09-28T05:06:47.555Z,75.40
2022-09-28T05:07:49.223Z,75.73
2022-09-28T05:08:50.885Z,73.97
2022-09-28T05:09:53.001Z,73.84
2022-09-28T05:11:00.148Z,72.72
2022-09-28T05:12:02.065Z,71.73
2022-09-28T05:13:03.758Z,71.14
2022-09-28T05:14:06.081Z,71.65
2022-09-28T05:15:08.007Z,69.27
2022-09-28T05:16:10.638Z,67.60
2022-09-28T05:17:12.332Z,65.68
2022-09-28T05:18:14.333Z,60.61
2022-09-28T05:19:16.113Z,62.98
2022-09-28T05:20:17.790Z,62.44
2022-09-28T05:21:20.218Z,61.99
2022-09-28T05:22:21.897Z,60.08
2022-09-28T05:23:23.577Z,58.06
2022-09-28T05:24:25.223Z,56.34
2022-09-28T05:25:26.868Z,55.66
2022-09-28T05:26:28.533Z,54.77
2022-09-28T05:27:30.225Z,54.04
2022-09-28T05:28:33.494Z,53.17
2022-09-28T05:29:35.140Z,54.13
2022-09-28T05:30:37.312Z,52.58
2022-09-28T05:31:39.054Z,52.12
2022-09-28T05:32:44.439Z,51.14
2022-09-28T05:33:46.094Z,49.74
2022-09-28T05:34:47.826Z,48.37
2022-09-28T05:35:53.823Z,48.48
2022-09-28T05:36:56.930Z,48.60
2022-09-28T05:38:04.651Z,48.03
2022-09-28T05:39:06.975Z,47.49
2022-09-28T05:40:09.301Z,47.16
2022-09-28T05:41:11.150Z,46.37
2022-09-28T05:42:12.836Z,45.65
2022-09-28T05:43:14.508Z,45.22
2022-09-28T05:44:16.495Z,45.59
2022-09-28T05:45:18.459Z,44.51
2022-09-28T05:46:21.341Z,44.29
2022-09-28T05:47:23.028Z,43.85
2022-09-28T05:48:25.209Z,43.59
2022-09-28T05:49:29.331Z,43.12
2022-09-28T05:50:31.129Z,42.95
2022-09-28T05:51:32.794Z,42.98
2022-09-28T05:52:34.572Z,42.21
2022-09-28T05:53:36.609Z,42.46
2022-09-28T05:54:38.339Z,41.65
2022-09-28T05:55:40.143Z,41.28
2022-09-28T05:56:41.867Z,41.36
2022-09-28T05:57:43.538Z,41.68
2022-09-28T05:58:45.227Z,41.34
2022-09-28T05:59:47.034Z,41.25
2022-09-28T06:00:55.048Z,40.36
2022-09-28T06:01:56.708Z,41.08
2022-09-28T06:03:00.194Z,41.09
2022-09-28T06:04:01.846Z,40.93
2022-09-28T06:05:03.750Z,41.14
2022-09-28T06:06:05.551Z,40.48
2022-09-28T06:07:07.305Z,40.47
2022-09-28T06:08:13.412Z,39.75
2022-09-28T06:09:15.100Z,39.96
2022-09-28T06:10:16.821Z,40.37
2022-09-28T06:11:18.863Z,39.95
2022-09-28T06:12:20.545Z,40.37
2022-09-28T06:13:22.252Z,39.92
2022-09-28T06:14:24.171Z,39.73
2022-09-28T06:15:29.857Z,39.28
2022-09-28T06:16:31.594Z,39.54
2022-09-28T06:17:33.276Z,39.51
2022-09-28T06:18:35.260Z,38.84
2022-09-28T06:19:36.901Z,38.85
2022-09-28T06:20:41.420Z,38.78
2022-09-28T06:21:43.121Z,38.67
2022-09-28T06:22:44.803Z,38.88
2022-09-28T06:23:49.222Z,38.14
2022-09-28T06:24:51.200Z,37.82
2022-09-28T06:25:52.844Z,36.72
2022-09-28T06:26:54.613Z,36.38
2022-09-28T06:28:15.120Z,36.70
2022-09-28T06:29:19.656Z,35.66
2022-09-28T06:30:22.344Z,35.94
2022-09-28T06:31:25.121Z,35.20
2022-09-28T06:32:29.337Z,35.55
2022-09-28T06:33:31.072Z,35.78
2022-09-28T06:34:32.748Z,34.71
2022-09-28T06:35:35.630Z,35.13
2022-09-28T06:36:37.308Z,35.41
2022-09-28T06:37:39.031Z,34.55
2022-09-28T06:38:40.750Z,34.46
2022-09-28T06:39:42.414Z,35.50
2022-09-28T06:40:44.250Z,35.32
2022-09-28T06:41:45.984Z,35.08
2022-09-28T06:43:10.673Z,34.72
2022-09-28T06:44:12.366Z,34.55
2022-09-28T06:45:14.158Z,36.35
2022-09-28T06:46:15.863Z,36.81
2022-09-28T06:47:17.737Z,36.80
2022-09-28T06:48:19.816Z,37.00
2022-09-28T06:49:22.270Z,36.41
2022-09-28T06:50:31.138Z,35.18
2022-09-28T06:51:33.104Z,35.16
2022-09-28T06:52:34.795Z,35.12
2022-09-28T06:53:36.456Z,35.44
2022-09-28T06:54:38.115Z,34.44
2022-09-28T06:55:41.168Z,33.99
2022-09-28T06:56:42.814Z,34.26
2022-09-28T06:57:44.658Z,34.39
2022-09-28T06:58:46.348Z,33.53
2022-09-28T06:59:48.019Z,33.31
2022-09-28T07:00:53.284Z,33.50
2022-09-28T07:01:54.982Z,32.23
2022-09-28T07:02:57.256Z,32.62
2022-09-28T07:03:59.005Z,32.24
2022-09-28T07:05:00.684Z,32.78
2022-09-28T07:06:02.849Z,33.13
2022-09-28T07:07:04.864Z,32.43
2022-09-28T07:08:06.598Z,32.55
2022-09-28T07:09:27.758Z,30.92
2022-09-28T07:10:31.444Z,31.79
2022-09-28T07:11:44.471Z,32.30
2022-09-28T07:12:47.576Z,31.81
2022-09-28T07:13:51.181Z,31.77
2022-09-28T07:14:57.404Z,31.85
2022-09-28T07:16:02.225Z,30.81
2022-09-28T07:17:13.591Z,30.50
2022-09-28T07:18:17.993Z,29.52
2022-09-28T07:19:19.690Z,29.92
2022-09-28T07:20:21.380Z,30.77
2022-09-28T07:21:29.869Z,31.36
2022-09-28T07:22:42.401Z,31.28
2022-09-28T07:23:52.834Z,29.96
2022-09-28T07:24:55.666Z,30.47
2022-09-28T07:25:58.351Z,30.81
2022-09-28T07:27:00.006Z,29.90
2022-09-28T07:28:02.814Z,28.83
2022-09-28T07:29:05.001Z,29.39
2022-09-28T07:30:07.363Z,28.79
2022-09-28T07:31:09.766Z,29.63
2022-09-28T07:32:11.497Z,30.50
2022-09-28T07:33:16.012Z,29.06
2022-09-28T07:34:18.626Z,29.39
2022-09-28T07:35:20.486Z,29.99
2022-09-28T07:36:22.965Z,29.83
2022-09-28T07:37:26.660Z,27.71
2022-09-28T07:38:28.368Z,28.21
2022-09-28T07:39:30.022Z,27.06
2022-09-28T07:40:52.442Z,27.26
2022-09-28T07:41:56.763Z,27.12
2022-09-28T07:43:07.313Z,27.66
2022-09-28T07:44:08.970Z,27.17
2022-09-28T07:45:11.185Z,26.66
2022-09-28T07:46:13.035Z,27.35
2022-09-28T07:47:15.019Z,26.95
2022-09-28T07:48:17.350Z,25.67
2022-09-28T07:49:19.478Z,27.45
2022-09-28T07:50:21.649Z,28.10
2022-09-28T07:51:23.326Z,27.50
2022-09-28T07:52:26.473Z,27.72
2022-09-28T07:53:28.715Z,28.74
2022-09-28T07:54:31.417Z,27.32
2022-09-28T07:55:33.210Z,27.88
2022-09-28T07:56:35.153Z,29.05
2022-09-28T07:57:36.865Z,27.92
2022-09-28T07:58:39.665Z,29.13
2022-09-28T07:59:41.331Z,28.35
2022-09-28T08:00:45.112Z,29.31
2022-09-28T08:01:49.667Z,28.52
2022-09-28T08:02:51.616Z,28.87
2022-09-28T08:03:56.411Z,28.55
2022-09-28T08:04:58.289Z,29.40
2022-09-28T08:06:01.294Z,28.18
2022-09-28T08:07:03.698Z,27.39
2022-09-28T08:08:05.440Z,28.21
2022-09-28T08:09:07.129Z,27.39
2022-09-28T08:10:09.330Z,27.20
2022-09-28T08:11:16.971Z,26.34
2022-09-28T08:12:19.845Z,27.00
2022-09-28T08:13:23.561Z,27.08
2022-09-28T08:14:28.695Z,27.42
2022-09-28T08:15:37.151Z,25.65
2022-09-28T08:16:38.827Z,25.78
2022-09-28T08:17:46.302Z,26.31
2022-09-28T08:18:51.110Z,26.85
2022-09-28T08:20:11.520Z,25.84
2022-09-28T08:21:31.476Z,25.71
2022-09-28T08:22:33.212Z,26.01
2022-09-28T08:23:34.863Z,26.44
2022-09-28T08:24:36.495Z,25.89
2022-09-28T08:25:38.382Z,25.41
2022-09-28T08:26:40.041Z,25.59
2022-09-28T08:27:41.784Z,25.48
2022-09-28T08:28:45.277Z,25.56
2022-09-28T08:29:46.962Z,25.88
2022-09-28T08:30:49.138Z,25.37
2022-09-28T08:31:50.798Z,25.28
2022-09-28T08:32:52.497Z,25.82
2022-09-28T08:33:54.536Z,27.88
2022-09-28T08:34:56.187Z,26.46
2022-09-28T08:35:59.311Z,25.55
2022-09-28T08:37:00.977Z,25.72
2022-09-28T08:38:03.509Z,27.03
2022-09-28T08:39:05.310Z,26.98
2022-09-28T08:40:17.122Z,26.64
2022-09-28T08:42:12.469Z,26.63
2022-09-28T08:43:31.431Z,26.37
2022-09-28T08:45:49.243Z,27.19
2022-09-28T08:47:02.157Z,26.50
2022-09-28T08:48:35.607Z,28.21
2022-09-28T08:49:45.175Z,27.11
2022-09-28T08:51:10.838Z,27.32
2022-09-28T08:52:12.507Z,27.37
2022-09-28T08:53:36.013Z,27.65
2022-09-28T08:55:02.572Z,26.14
2022-09-28T08:56:12.118Z,25.58
2022-09-28T08:57:20.738Z,25.81
2022-09-28T08:58:32.482Z,25.87
2022-09-28T08:59:52.347Z,26.66
2022-09-28T09:00:54.634Z,25.44
2022-09-28T09:02:00.942Z,24.09
2022-09-28T09:03:06.784Z,24.65
2022-09-28T09:04:09.371Z,22.86
2022-09-28T09:05:14.926Z,25.29
2022-09-28T09:06:22.428Z,23.70
2022-09-28T09:07:33.107Z,23.09
2022-09-28T09:08:34.618Z,23.24
2022-09-28T09:09:36.209Z,23.61
2022-09-28T09:10:50.001Z,24.51
2022-09-28T09:12:00.859Z,24.47
2022-09-28T09:13:28.606Z,22.70
2022-09-28T09:15:07.092Z,24.34
2022-09-28T09:16:17.845Z,26.53
2022-09-28T09:17:25.414Z,24.90
2022-09-28T09:18:37.378Z,24.43
2022-09-28T09:20:03.591Z,23.27
2022-09-28T09:21:18.462Z,25.00
2022-09-28T09:22:38.766Z,24.42
2022-09-28T09:24:24.846Z,24.25
2022-09-28T09:25:28.653Z,22.56
2022-09-28T09:26:40.434Z,22.44
2022-09-28T09:28:04.674Z,21.96
2022-09-28T09:29:25.188Z,21.73
2022-09-28T09:30:31.732Z,22.00
2022-09-28T09:32:10.816Z,22.28
2022-09-28T09:33:15.990Z,21.81
2022-09-28T09:34:46.857Z,22.15
2022-09-28T09:35:58.999Z,21.77
2022-09-28T09:37:22.504Z,21.79
2022-09-28T09:38:48.937Z,21.63
2022-09-28T09:40:26.362Z,22.67
2022-09-28T09:41:51.215Z,22.15
2022-09-28T09:43:11.324Z,22.59
2022-09-28T09:44:38.911Z,24.40
2022-09-28T09:45:41.110Z,25.10
2022-09-28T09:47:02.149Z,24.05
2022-09-28T09:48:07.672Z,25.44
2022-09-28T09:49:27.082Z,26.43
2022-09-28T09:50:32.705Z,26.04
2022-09-28T09:51:42.088Z,26.57
2022-09-28T09:52:55.390Z,25.90
2022-09-28T09:54:12.791Z,26.26
2022-09-28T09:55:21.741Z,26.46
2022-09-28T09:56:44.153Z,26.40
2022-09-28T09:57:54.641Z,26.53
2022-09-28T09:59:02.856Z,27.42
2022-09-28T10:00:04.915Z,27.26
2022-09-28T10:01:14.475Z,27.40
2022-09-28T10:02:36.468Z,27.17
2022-09-28T10:03:43.082Z,29.08
2022-09-28T10:04:47.243Z,28.76
2022-09-28T10:05:56.785Z,29.11
2022-09-28T10:07:03.875Z,29.09
2022-09-28T10:08:08.484Z,29.20
2022-09-28T10:09:17.036Z,29.32
2022-09-28T10:10:18.968Z,29.08
2022-09-28T10:11:27.670Z,29.95
2022-09-28T10:12:31.174Z,29.44
2022-09-28T10:13:33.042Z,30.20
2022-09-28T10:14:35.869Z,31.62
2022-09-28T10:15:37.580Z,32.15
2022-09-28T10:16:39.348Z,30.61
2022-09-28T10:17:41.210Z,30.52
2022-09-28T10:18:42.878Z,31.33
2022-09-28T10:19:44.728Z,31.96
2022-09-28T10:20:46.402Z,31.75
2022-09-28T10:21:53.167Z,31.94
2022-09-28T10:22:58.728Z,32.13
2022-09-28T10:24:04.095Z,31.94
2022-09-28T10:25:06.636Z,31.87
2022-09-28T10:26:24.905Z,32.56
2022-09-28T10:27:34.367Z,31.96
2022-09-28T10:28:45.436Z,31.85
2022-09-28T10:29:54.495Z,33.16
2022-09-28T10:30:56.448Z,33.23
2022-09-28T10:31:58.218Z,34.12
2022-09-28T10:33:01.507Z,31.81
2022-09-28T10:34:04.721Z,32.28
2022-09-28T10:35:18.678Z,32.23
2022-09-28T10:36:20.367Z,32.47
2022-09-28T10:37:22.530Z,34.49
2022-09-28T10:38:24.730Z,33.20
2022-09-28T10:39:30.282Z,33.84
2022-09-28T10:40:37.862Z,33.33
2022-09-28T10:41:49.909Z,33.49
2022-09-28T10:42:59.501Z,34.41
2022-09-28T10:44:07.272Z,33.84
2022-09-28T10:45:23.463Z,34.40
2022-09-28T10:46:25.472Z,35.35
2022-09-28T10:47:33.459Z,34.84
2022-09-28T10:48:38.962Z,34.96
2022-09-28T10:49:47.291Z,35.83
2022-09-28T10:51:08.726Z,35.56
2022-09-28T10:52:29.199Z,35.72
2022-09-28T10:53:30.999Z,37.00
2022-09-28T10:54:32.757Z,34.69
2022-09-28T10:55:37.018Z,35.31
2022-09-28T10:56:41.174Z,36.44
2022-09-28T10:57:42.845Z,35.86
2022-09-28T10:58:44.831Z,33.92
2022-09-28T10:59:47.138Z,33.91
2022-09-28T11:00:49.581Z,34.29
2022-09-28T11:02:09.673Z,33.42
2022-09-28T11:03:52.786Z,32.95
2022-09-28T11:04:58.183Z,34.84
2022-09-28T11:06:10.849Z,33.89
2022-09-28T11:07:27.812Z,32.96
2022-09-28T11:08:38.236Z,34.20
2022-09-28T11:09:45.357Z,33.31
2022-09-28T11:10:47.551Z,32.02
2022-09-28T11:11:49.276Z,31.19
2022-09-28T11:12:51.562Z,30.46
2022-09-28T11:14:01.259Z,31.02
2022-09-28T11:15:06.461Z,32.36
2022-09-28T11:16:14.191Z,31.35
2022-09-28T11:17:32.830Z,32.18
2022-09-28T11:18:34.755Z,32.18
2022-09-28T11:19:37.106Z,30.27
2022-09-28T11:20:44.121Z,30.10
2022-09-28T11:21:46.889Z,30.94
2022-09-28T11:22:51.619Z,33.01
2022-09-28T11:23:58.625Z,31.47
2022-09-28T11:25:17.503Z,30.90
2022-09-28T11:26:19.401Z,32.60
2022-09-28T11:27:26.736Z,31.76
2022-09-28T11:28:37.620Z,31.52
2022-09-28T11:29:47.000Z,31.70
2022-09-28T11:30:53.715Z,32.20
2022-09-28T11:32:01.039Z,32.05
2022-09-28T11:33:19.233Z,32.62
2022-09-28T11:34:41.812Z,31.58
2022-09-28T11:36:11.411Z,32.30
2022-09-28T11:37:13.618Z,33.65
2022-09-28T11:38:21.138Z,32.61
2022-09-28T11:39:49.879Z,33.48
2022-09-28T11:41:09.414Z,34.70
2022-09-28T11:42:40.312Z,35.16
2022-09-28T11:44:00.657Z,34.26
2022-09-28T11:45:18.339Z,33.71
2022-09-28T11:46:38.844Z,33.35
2022-09-28T11:47:47.265Z,34.17
2022-09-28T11:48:56.599Z,33.39
2022-09-28T11:50:24.321Z,32.89
2022-09-28T11:51:36.436Z,34.93
2022-09-28T11:52:55.076Z,33.25
2022-09-28T11:54:05.234Z,34.18
2022-09-28T11:55:18.040Z,35.31
2022-09-28T11:56:32.692Z,36.20
2022-09-28T11:57:40.952Z,36.17
2022-09-28T11:58:50.333Z,35.23
2022-09-28T11:59:51.953Z,33.95
2022-09-28T12:01:03.813Z,35.13
2022-09-28T12:02:16.862Z,35.57
2022-09-28T12:03:36.213Z,36.64
2022-09-28T12:04:44.935Z,36.05
2022-09-28T12:05:59.749Z,34.98
2022-09-28T12:07:12.098Z,34.77
2022-09-28T12:08:25.698Z,35.14
2022-09-28T12:09:56.388Z,33.78
2022-09-28T12:11:12.576Z,34.87
2022-09-28T12:12:40.741Z,34.16
2022-09-28T12:13:48.079Z,35.38
2022-09-28T12:14:55.180Z,35.97
2022-09-28T12:17:54.909Z,37.23
2022-09-28T12:19:03.430Z,35.87
2022-09-28T12:20:17.428Z,34.97
2022-09-28T12:21:25.398Z,36.30
2022-09-28T12:22:38.208Z,36.04
2022-09-28T12:23:42.128Z,35.94
2022-09-28T12:24:50.949Z,35.71
2022-09-28T12:25:59.514Z,34.22
2022-09-28T12:27:10.266Z,35.91
2022-09-28T12:28:31.658Z,35.11
2022-09-28T12:29:41.278Z,36.17
2022-09-28T12:30:45.448Z,37.89
2022-09-28T12:32:13.065Z,38.63
2022-09-28T12:33:15.541Z,39.07
2022-09-28T12:34:17.326Z,37.49
2022-09-28T12:35:39.187Z,37.56
2022-09-28T12:36:54.991Z,38.21
2022-09-28T12:38:21.407Z,37.59
2022-09-28T12:39:56.421Z,38.41
2022-09-28T12:41:07.226Z,38.98
2022-09-28T12:42:21.608Z,38.73
2022-09-28T12:43:54.737Z,38.67
2022-09-28T12:45:21.881Z,37.90
2022-09-28T12:46:46.100Z,37.49
2022-09-28T12:48:22.977Z,39.23
2022-09-28T12:51:47.475Z,38.64
2022-09-28T12:52:52.050Z,39.71
2022-09-28T12:54:12.125Z,38.98
2022-09-28T12:55:16.661Z,39.32
2022-09-28T12:56:27.297Z,39.69
2022-09-28T12:57:51.951Z,38.95
2022-09-28T12:59:08.352Z,39.38
2022-09-28T13:00:23.007Z,39.17
2022-09-28T13:01:47.524Z,38.65
2022-09-28T13:03:07.994Z,38.58
2022-09-28T13:04:23.249Z,37.99
2022-09-28T13:06:00.145Z,38.95
2022-09-28T13:07:26.288Z,39.47
2022-09-28T13:08:36.703Z,39.08
2022-09-28T13:09:55.167Z,37.12
2022-09-28T13:11:01.345Z,37.81
2022-09-28T13:12:38.128Z,37.59
2022-09-28T13:13:39.708Z,36.33
2022-09-28T13:15:16.459Z,36.71
2022-09-28T13:17:00.409Z,37.26
2022-09-28T13:18:02.343Z,36.79
2022-09-28T13:19:03.929Z,36.65
2022-09-28T13:20:15.785Z,36.58
2022-09-28T13:21:28.380Z,36.26
2022-09-28T13:22:56.610Z,36.34
2022-09-28T13:24:14.760Z,36.67
2022-09-28T13:25:29.072Z,36.54
2022-09-28T13:26:38.170Z,36.08
2022-09-28T13:27:46.320Z,35.75
2022-09-28T13:28:51.447Z,36.19
2022-09-28T13:29:55.699Z,36.23
2022-09-28T13:31:02.339Z,36.66
2022-09-28T13:32:05.387Z,36.87
2022-09-28T13:33:15.733Z,35.44
2022-09-28T13:34:29.596Z,35.56
2022-09-28T13:35:33.419Z,35.29
2022-09-28T13:36:37.109Z,35.87
2022-09-28T13:37:38.754Z,36.31
2022-09-28T13:38:49.872Z,34.93
2022-09-28T13:39:53.433Z,34.84
2022-09-28T13:41:04.248Z,34.82
2022-09-28T13:42:08.292Z,34.33
2022-09-28T13:43:25.380Z,34.49
2022-09-28T13:45:00.348Z,34.01
2022-09-28T13:46:18.925Z,34.44
2022-09-28T13:47:51.742Z,34.98
2022-09-28T13:49:06.272Z,34.40
2022-09-28T13:50:38.007Z,33.23
2022-09-28T13:51:57.424Z,33.54
2022-09-28T13:53:13.540Z,33.36
2022-09-28T13:54:41.340Z,32.97
2022-09-28T13:56:20.752Z,33.40
2022-09-28T13:57:37.347Z,32.89
2022-09-28T13:58:45.215Z,33.63
2022-09-28T14:00:22.374Z,33.68
2022-09-28T14:01:28.961Z,33.75
2022-09-28T14:02:33.522Z,33.11
2022-09-28T14:03:53.175Z,32.63
2022-09-28T14:05:00.182Z,32.40
2022-09-28T14:06:23.276Z,32.79
2022-09-28T14:07:46.896Z,32.71
2022-09-28T14:09:24.253Z,33.10
2022-09-28T14:10:52.301Z,34.00
2022-09-28T14:12:02.421Z,33.39
2022-09-28T14:13:06.605Z,34.29
2022-09-28T14:14:14.225Z,33.41
2022-09-28T14:15:37.700Z,33.88
2022-09-28T14:16:41.416Z,31.87
2022-09-28T14:17:54.704Z,32.37
2022-09-28T14:19:05.961Z,33.19
2022-09-28T14:20:13.980Z,32.98
2022-09-28T14:21:53.016Z,33.58
2022-09-28T14:23:01.806Z,33.29
2022-09-28T14:24:42.653Z,33.88
2022-09-28T14:26:04.584Z,33.88
2022-09-28T14:27:29.013Z,33.09
2022-09-28T14:28:39.747Z,34.10
2022-09-28T14:29:41.679Z,33.93
2022-09-28T14:30:43.410Z,34.84
2022-09-28T14:31:45.430Z,34.91
2022-09-28T14:32:58.568Z,33.54
2022-09-28T14:34:03.560Z,33.57
2022-09-28T14:35:18.744Z,34.34
2022-09-28T14:36:46.172Z,33.94
2022-09-28T14:38:08.581Z,33.48
2022-09-28T14:39:39.227Z,34.01
2022-09-28T14:41:11.078Z,34.92
2022-09-28T14:42:17.656Z,35.96
2022-09-28T14:43:35.778Z,35.79
2022-09-28T14:45:06.303Z,35.58
2022-09-28T14:46:11.858Z,35.83
2022-09-28T14:47:37.914Z,36.39
2022-09-28T14:49:06.989Z,35.68
2022-09-28T14:50:34.773Z,34.80